createdAt,value
2018-06-05T00:00:19.669Z,99517.64
2018-06-05T00:02:50.267Z,99520.05
2018-06-05T00:05:21.705Z,99520.61
2018-06-05T00:07:51.246Z,99528.83
2018-06-05T00:10:22.750Z,99532.73
2018-06-05T00:12:53.427Z,99540.74
2018-06-05T00:15:24.346Z,99538.04
2018-06-05T00:17:55.706Z,99535.64
2018-06-05T00:20:25.554Z,99533.43
2018-06-05T00:22:56.313Z,99535.64
2018-06-05T00:25:27.655Z,99532.17
2018-06-05T00:27:58.765Z,99532.17
2018-06-05T00:30:29.372Z,99529.19
2018-06-05T00:33:00.648Z,99533.52
2018-06-05T00:35:31.749Z,99529.47
2018-06-05T00:38:02.362Z,99540.56
2018-06-05T00:40:33.705Z,99545.41
2018-06-05T00:43:04.337Z,99545.95
2018-06-05T00:45:35.933Z,99542.68
2018-06-05T00:48:06.493Z,99544.03
2018-06-05T00:50:37.433Z,99535.09
2018-06-05T00:53:08.681Z,99539.14
2018-06-05T00:55:39.369Z,99539.41
2018-06-05T00:58:09.633Z,99541.23
2018-06-05T01:00:40.445Z,99535.55
2018-06-05T01:03:11.329Z,99539.02
2018-06-05T01:05:42.684Z,99542.78
2018-06-05T01:08:13.270Z,99540.59
2018-06-05T01:10:44.661Z,99535.45
2018-06-05T01:13:15.598Z,99535.10
2018-06-05T01:15:46.596Z,99541.63
2018-06-05T01:18:17.329Z,99538.64
2018-06-05T01:20:48.686Z,99535.07
2018-06-05T01:23:19.317Z,99531.50
2018-06-05T01:25:50.753Z,99534.91
2018-06-05T01:28:21.284Z,99536.23
2018-06-05T01:30:52.716Z,99533.47
2018-06-05T01:33:23.256Z,99540.47
2018-06-05T01:35:54.754Z,99533.66
2018-06-05T01:38:25.422Z,99526.62
2018-06-05T01:40:56.393Z,99523.92
2018-06-05T01:43:27.676Z,99521.48
2018-06-05T01:45:58.302Z,99524.41
2018-06-05T01:48:28.553Z,99525.14
2018-06-05T01:50:59.418Z,99520.44
2018-06-05T01:53:30.604Z,99525.22
2018-06-05T01:56:01.434Z,99520.30
2018-06-05T01:58:32.321Z,99529.75
2018-06-05T02:01:03.690Z,99526.38
2018-06-05T02:03:34.346Z,99497.34
2018-06-05T02:06:05.954Z,99532.02
2018-06-05T02:08:36.454Z,99528.48
2018-06-05T02:11:07.695Z,99524.98
2018-06-05T02:13:38.365Z,99525.50
2018-06-05T02:16:09.721Z,99526.55
2018-06-05T02:18:39.814Z,99522.48
2018-06-05T02:21:10.431Z,99525.39
2018-06-05T02:23:41.337Z,99525.83
2018-06-05T02:26:12.697Z,99529.52
2018-06-05T02:28:43.293Z,99529.48
2018-06-05T02:31:14.714Z,99526.60
2018-06-05T02:33:45.358Z,99539.25
2018-06-05T02:36:16.622Z,99534.88
2018-06-05T02:38:47.439Z,99531.59
2018-06-05T02:41:18.621Z,99532.65
2018-06-05T02:43:49.415Z,99540.44
2018-06-05T02:46:20.345Z,99533.63
2018-06-05T02:48:51.663Z,99541.42
2018-06-05T02:51:22.366Z,99534.65
2018-06-05T02:53:53.666Z,99531.66
2018-06-05T02:56:24.520Z,99532.64
2018-06-05T02:58:55.328Z,99534.24
2018-06-05T03:01:26.675Z,99537.45
2018-06-05T03:03:57.293Z,99538.98
2018-06-05T03:06:28.663Z,99544.07
2018-06-05T03:08:59.273Z,99543.48
2018-06-05T03:11:30.685Z,99547.82
2018-06-05T03:14:01.434Z,99545.89
2018-06-05T03:16:32.420Z,99543.95
2018-06-05T03:19:03.681Z,99546.36
2018-06-05T03:21:34.363Z,99550.11
2018-06-05T03:24:05.693Z,99543.63
2018-06-05T03:26:36.329Z,99551.70
2018-06-05T03:29:06.577Z,99547.59
2018-06-05T03:31:37.945Z,99561.02
2018-06-05T03:34:08.357Z,99554.79
2018-06-05T03:36:39.688Z,99564.17
2018-06-05T03:39:10.261Z,99567.09
2018-06-05T03:41:41.701Z,99558.92
2018-06-05T03:44:12.257Z,99559.44
2018-06-05T03:46:43.649Z,99560.78
2018-06-05T03:49:14.252Z,99564.78
2018-06-05T03:51:45.629Z,99567.48
2018-06-05T03:54:16.341Z,99573.84
2018-06-05T03:56:47.613Z,99565.71
2018-06-05T03:59:18.317Z,99571.31
2018-06-05T04:01:49.746Z,99572.61
2018-06-05T04:04:20.387Z,99580.91
2018-06-05T04:06:51.420Z,99578.39
2018-06-05T04:09:22.217Z,99591.27
2018-06-05T04:11:53.784Z,99583.94
2018-06-05T04:14:24.261Z,99588.28
2018-06-05T04:16:55.663Z,99577.50
2018-06-05T04:19:25.444Z,99592.15
2018-06-05T04:21:56.310Z,99588.41
2018-06-05T04:24:27.622Z,99587.89
2018-06-05T04:26:58.316Z,99595.13
2018-06-05T04:29:29.611Z,99594.55
2018-06-05T04:32:00.129Z,99606.66
2018-06-05T04:34:30.601Z,99606.16
2018-06-05T04:37:01.354Z,99607.13
2018-06-05T04:39:32.577Z,99603.13
2018-06-05T04:42:03.383Z,99604.50
2018-06-05T04:44:34.677Z,99609.64
2018-06-05T04:47:05.361Z,99615.56
2018-06-05T04:49:36.733Z,99612.58
2018-06-05T04:52:07.338Z,99621.25
2018-06-05T04:54:38.643Z,99620.06
2018-06-05T04:57:09.319Z,99622.00
2018-06-05T04:59:40.604Z,99624.16
2018-06-05T05:02:11.362Z,99624.37
2018-06-05T05:04:42.608Z,99629.54
2018-06-05T05:07:13.405Z,99626.14
2018-06-05T05:09:44.645Z,99625.20
2018-06-05T05:12:15.290Z,99620.92
2018-06-05T05:14:46.729Z,99620.46
2018-06-05T05:17:17.430Z,99632.41
2018-06-05T05:19:48.274Z,99644.95
2018-06-05T05:22:19.657Z,99640.54
2018-06-05T05:24:50.366Z,99645.98
2018-06-05T05:27:22.033Z,99651.73
2018-06-05T05:29:51.793Z,99648.50
2018-06-05T05:32:22.367Z,99654.64
2018-06-05T05:34:53.612Z,99652.48
2018-06-05T05:37:24.461Z,99658.39
2018-06-05T05:39:55.306Z,99655.48
2018-06-05T05:42:26.752Z,99654.19
2018-06-05T05:44:57.302Z,99652.33
2018-06-05T05:47:28.682Z,99657.05
2018-06-05T05:49:59.377Z,99656.58
2018-06-05T05:52:30.237Z,99652.20
2018-06-05T05:55:00.590Z,99645.30
2018-06-05T05:57:31.649Z,99648.24
2018-06-05T06:00:02.742Z,99651.43
2018-06-05T06:02:33.393Z,99647.31
2018-06-05T06:05:04.825Z,99643.93
2018-06-05T06:07:35.356Z,99643.47
2018-06-05T06:10:06.646Z,99649.31
2018-06-05T06:12:37.417Z,99643.89
2018-06-05T06:15:08.276Z,99648.93
2018-06-05T06:17:40.073Z,99645.00
2018-06-05T06:20:10.571Z,99646.31
2018-06-05T06:22:41.369Z,99643.77
2018-06-05T06:25:12.661Z,99649.67
2018-06-05T06:27:43.341Z,99646.28
2018-06-05T06:30:14.707Z,99644.45
2018-06-05T06:32:45.354Z,99649.19
2018-06-05T06:35:16.618Z,99654.98
2018-06-05T06:37:47.313Z,99656.44
2018-06-05T06:40:18.605Z,99656.25
2018-06-05T06:42:49.397Z,99657.78
2018-06-05T06:45:20.581Z,99658.47
2018-06-05T06:47:51.378Z,99660.61
2018-06-05T06:50:21.200Z,99663.53
2018-06-05T06:52:52.946Z,99666.53
2018-06-05T06:55:23.414Z,99666.50
2018-06-05T06:57:54.361Z,99662.95
2018-06-05T07:00:25.609Z,99663.98
2018-06-05T07:02:55.422Z,99662.66
2018-06-05T07:05:26.318Z,99661.38
2018-06-05T07:07:57.733Z,99659.58
2018-06-05T07:10:28.293Z,99662.91
2018-06-05T07:12:59.569Z,99664.01
2018-06-05T07:15:30.275Z,99666.41
2018-06-05T07:18:01.709Z,99666.75
2018-06-05T07:20:32.282Z,99671.00
2018-06-05T07:23:03.665Z,99675.30
2018-06-05T07:25:34.338Z,99665.36
2018-06-05T07:28:05.597Z,99670.65
2018-06-05T07:30:36.340Z,99663.84
2018-06-05T07:33:07.620Z,99667.97
2018-06-05T07:35:38.345Z,99667.47
2018-06-05T07:38:09.603Z,99667.81
2018-06-05T07:40:40.685Z,99667.39
2018-06-05T07:43:10.504Z,99678.86
2018-06-05T07:45:41.309Z,99670.91
2018-06-05T07:48:12.669Z,99682.95
2018-06-05T07:50:43.347Z,99676.67
2018-06-05T07:53:14.714Z,99677.30
2018-06-05T07:55:45.358Z,99679.93
2018-06-05T07:58:16.289Z,99679.95
2018-06-05T08:00:47.541Z,99673.96
2018-06-05T08:03:18.328Z,99668.20
2018-06-05T08:05:49.650Z,99682.31
2018-06-05T08:08:20.477Z,99677.16
2018-06-05T08:10:51.353Z,99677.03
2018-06-05T08:13:22.693Z,99675.16
2018-06-05T08:15:53.286Z,99681.53
2018-06-05T08:18:24.706Z,99681.54
2018-06-05T08:20:55.370Z,99683.00
2018-06-05T08:23:25.310Z,99682.16
2018-06-05T08:25:56.513Z,99683.06
2018-06-05T08:28:27.276Z,99680.34
2018-06-05T08:30:58.597Z,99680.03
2018-06-05T08:33:29.290Z,99683.97
2018-06-05T08:36:00.573Z,99680.23
2018-06-05T08:38:31.265Z,99679.39
2018-06-05T08:41:02.642Z,99678.69
2018-06-05T08:43:33.391Z,99684.91
2018-06-05T08:46:04.269Z,99688.13
2018-06-05T08:48:35.669Z,99679.83
2018-06-05T08:51:06.238Z,99691.95
2018-06-05T08:53:37.664Z,99681.48
2018-06-05T08:56:08.265Z,99687.30
2018-06-05T08:58:39.548Z,99684.66
2018-06-05T09:01:10.365Z,99680.23
2018-06-05T09:03:41.637Z,99683.23
2018-06-05T09:06:12.341Z,99679.05
2018-06-05T09:08:43.840Z,99685.23
2018-06-05T09:11:14.302Z,99678.00
2018-06-05T09:13:45.595Z,99677.75
2018-06-05T09:16:16.266Z,99680.40
2018-06-05T09:18:47.701Z,99690.05
2018-06-05T09:21:18.197Z,99682.31
2018-06-05T09:23:49.670Z,99691.39
2018-06-05T09:26:20.254Z,99698.06
2018-06-05T09:28:51.613Z,99691.38
2018-06-05T09:31:23.317Z,99692.05
2018-06-05T09:33:53.553Z,99693.91
2018-06-05T09:36:24.300Z,99697.44
2018-06-05T09:38:55.584Z,99697.55
2018-06-05T09:41:26.293Z,99701.91
2018-06-05T09:43:57.585Z,99706.05
2018-06-05T09:46:28.282Z,99697.13
2018-06-05T09:48:59.565Z,99697.73
2018-06-05T09:51:30.302Z,99694.45
2018-06-05T09:54:01.780Z,99690.41
2018-06-05T09:56:32.364Z,99698.25
2018-06-05T09:59:03.386Z,99701.10
2018-06-05T10:01:34.280Z,99695.70
2018-06-05T10:04:05.657Z,99692.39
2018-06-05T10:06:36.250Z,99688.44
2018-06-05T10:09:08.898Z,99699.88
2018-06-05T10:11:38.868Z,99687.83
2018-06-05T10:14:09.474Z,99691.27
2018-06-05T10:16:40.261Z,99689.50
2018-06-05T10:19:11.637Z,99686.61
2018-06-05T10:21:43.276Z,99683.09
2018-06-05T10:24:13.654Z,99676.28
2018-06-05T10:26:43.446Z,99677.38
2018-06-05T10:29:14.279Z,99680.62
2018-06-05T10:31:44.725Z,99686.33
2018-06-05T10:34:15.589Z,99683.61
2018-06-05T10:36:46.281Z,99688.27
2018-06-05T10:39:17.654Z,99687.69
2018-06-05T10:41:48.308Z,99687.53
2018-06-05T10:44:19.684Z,99687.36
2018-06-05T10:46:50.331Z,99686.24
2018-06-05T10:49:20.757Z,99683.62
2018-06-05T10:51:51.285Z,99680.64
2018-06-05T10:54:22.648Z,99673.24
2018-06-05T10:56:53.242Z,99676.47
2018-06-05T10:59:24.710Z,99685.53
2018-06-05T11:01:55.254Z,99682.23
2018-06-05T11:04:26.618Z,99677.32
2018-06-05T11:06:57.216Z,99679.47
2018-06-05T11:09:28.621Z,99687.81
2018-06-05T11:11:58.378Z,99686.74
2018-06-05T11:14:29.290Z,99675.67
2018-06-05T11:16:59.526Z,99681.05
2018-06-05T11:19:30.444Z,99688.81
2018-06-05T11:22:02.072Z,99686.63
2018-06-05T11:24:32.554Z,99682.28
2018-06-05T11:27:03.247Z,99682.53
2018-06-05T11:29:34.605Z,99679.17
2018-06-05T11:32:05.049Z,99683.54
2018-06-05T11:34:35.520Z,99687.70
2018-06-05T11:37:06.348Z,99687.44
2018-06-05T11:39:37.693Z,99683.06
2018-06-05T11:42:08.250Z,99679.16
2018-06-05T11:44:39.711Z,99679.63
2018-06-05T11:47:10.290Z,99677.01
2018-06-05T11:49:41.897Z,99676.08
2018-06-05T11:52:12.311Z,99678.14
2018-06-05T11:54:43.673Z,99678.08
2018-06-05T11:57:14.261Z,99672.02
2018-06-05T11:59:45.630Z,99675.14
2018-06-05T12:02:16.289Z,99673.95
2018-06-05T12:04:47.666Z,99674.34
2018-06-05T12:07:18.294Z,99675.25
2018-06-05T12:09:48.754Z,99666.42
2018-06-05T12:12:19.327Z,99669.38
2018-06-05T12:14:50.660Z,99672.55
2018-06-05T12:17:21.233Z,99667.13
2018-06-05T12:19:52.729Z,99660.99
2018-06-05T12:22:23.526Z,99665.80
2018-06-05T12:24:54.346Z,99653.20
2018-06-05T12:27:25.197Z,99664.75
2018-06-05T12:29:56.673Z,99658.62
2018-06-05T12:32:27.604Z,99661.52
2018-06-05T12:34:58.069Z,99651.53
2018-06-05T12:37:28.503Z,99652.63
2018-06-05T12:39:59.386Z,99648.22
2018-06-05T12:42:30.353Z,99649.28
2018-06-05T12:45:01.687Z,99650.77
2018-06-05T12:47:32.880Z,99599.75
2018-06-05T12:50:04.402Z,99634.54
2018-06-05T12:52:35.691Z,99650.11
2018-06-05T12:55:06.133Z,99645.41
2018-06-05T12:57:38.452Z,99625.14
2018-06-05T13:00:09.077Z,99648.28
2018-06-05T13:02:39.263Z,99641.61
2018-06-05T13:05:09.273Z,99631.22
2018-06-05T13:07:39.882Z,99636.25
2018-06-05T13:10:11.881Z,99636.94
2018-06-05T13:12:43.267Z,99637.83
2018-06-05T13:15:13.979Z,99638.09
2018-06-05T13:17:43.974Z,99638.45
2018-06-05T13:20:16.618Z,99629.94
2018-06-05T13:22:47.442Z,99638.48
2018-06-05T13:25:18.590Z,99629.72
2018-06-05T13:27:49.040Z,99634.55
2018-06-05T13:30:19.754Z,99635.35
2018-06-05T13:32:49.682Z,99640.20
2018-06-05T13:35:20.501Z,99634.13
2018-06-05T13:37:51.446Z,99645.95
2018-06-05T13:40:22.397Z,99647.56
2018-06-05T13:42:52.350Z,99645.28
2018-06-05T13:45:23.836Z,99650.80
2018-06-05T13:47:54.388Z,99642.94
2018-06-05T13:50:25.541Z,99646.38
2018-06-05T13:52:56.689Z,99645.14
2018-06-05T13:55:27.504Z,99637.85
2018-06-05T13:57:58.373Z,99636.70
2018-06-05T14:00:29.473Z,99650.20
2018-06-05T14:02:59.479Z,99642.55
2018-06-05T14:05:30.437Z,99637.91
2018-06-05T14:08:01.837Z,99638.01
2018-06-05T14:10:32.881Z,99645.67
2018-06-05T14:13:04.456Z,99644.05
2018-06-05T14:15:34.952Z,99637.94
2018-06-05T14:18:05.490Z,99632.34
2018-06-05T14:20:36.545Z,99625.80
2018-06-05T14:23:07.437Z,99631.86
2018-06-05T14:25:38.425Z,99631.81
2018-06-05T14:28:09.471Z,99638.96
2018-06-05T14:30:40.500Z,99637.66
2018-06-05T14:33:11.370Z,99636.29
2018-06-05T14:35:42.394Z,99641.63
2018-06-05T14:38:13.737Z,99642.61
2018-06-05T14:40:46.135Z,99642.60
2018-06-05T14:43:18.194Z,99643.71
2018-06-05T14:45:49.334Z,99644.24
2018-06-05T14:48:19.915Z,99640.09
2018-06-05T14:50:51.406Z,99644.56
2018-06-05T14:53:21.901Z,99640.48
2018-06-05T14:55:52.420Z,99637.53
2018-06-05T14:58:22.289Z,99637.20
2018-06-05T15:00:52.888Z,99629.64
2018-06-05T15:03:24.052Z,99628.77
2018-06-05T15:05:54.281Z,99630.80
2018-06-05T15:08:25.331Z,99626.27
2018-06-05T15:10:55.290Z,99635.10
2018-06-05T15:13:26.765Z,99638.03
2018-06-05T15:15:57.957Z,99635.05
2018-06-05T15:18:28.557Z,99635.47
2018-06-05T15:20:59.505Z,99645.67
2018-06-05T15:23:30.452Z,99653.23
2018-06-05T15:26:01.478Z,99653.95
2018-06-05T15:28:32.414Z,99649.64
2018-06-05T15:31:03.582Z,99653.70
2018-06-05T15:33:34.614Z,99653.52
2018-06-05T15:36:04.630Z,99654.09
2018-06-05T15:38:36.645Z,99653.67
2018-06-05T15:41:06.936Z,99651.45
2018-06-05T15:43:37.526Z,99656.58
2018-06-05T15:46:08.419Z,99656.75
2018-06-05T15:48:39.336Z,99656.31
2018-06-05T15:51:10.727Z,99659.34
2018-06-05T15:53:41.375Z,99656.53
2018-06-05T15:56:12.670Z,99653.00
2018-06-05T15:58:43.353Z,99654.09
2018-06-05T16:01:14.800Z,99657.41
2018-06-05T16:03:45.627Z,99654.34
2018-06-05T16:06:16.530Z,99662.45
2018-06-05T16:08:47.650Z,99657.87
2018-06-05T16:11:18.669Z,99661.84
2018-06-05T16:13:49.916Z,99659.42
2018-06-05T16:16:20.519Z,99659.38
2018-06-05T16:18:52.094Z,99652.05
2018-06-05T16:21:23.059Z,99657.73
2018-06-05T16:23:54.146Z,99657.73
2018-06-05T16:26:24.670Z,99660.15
2018-06-05T16:28:55.226Z,99660.13
2018-06-05T16:31:26.331Z,99660.17
2018-06-05T16:33:56.731Z,99660.46
2018-06-05T16:36:26.715Z,99658.56
2018-06-05T16:38:57.446Z,99661.25
2018-06-05T16:41:28.490Z,99659.89
2018-06-05T16:43:59.488Z,99664.58
2018-06-05T16:46:30.414Z,99662.12
2018-06-05T16:49:01.846Z,99672.45
2018-06-05T16:51:33.656Z,99667.84
2018-06-05T16:54:04.426Z,99668.88
2018-06-05T16:56:34.522Z,99668.66
2018-06-05T16:59:05.971Z,99675.17
2018-06-05T17:01:36.446Z,99668.92
2018-06-05T17:04:07.265Z,99675.45
2018-06-05T17:06:38.667Z,99676.75
2018-06-05T17:09:09.650Z,99679.19
2018-06-05T17:11:40.409Z,99671.54
2018-06-05T17:14:11.417Z,99676.17
2018-06-05T17:16:41.476Z,99675.43
2018-06-05T17:19:12.363Z,99683.01
2018-06-05T17:21:43.817Z,99680.91
2018-06-05T17:24:14.294Z,99684.98
2018-06-05T17:26:45.759Z,99692.30
2018-06-05T17:29:15.597Z,99694.47
2018-06-05T17:31:47.142Z,99693.20
2018-06-05T17:34:18.123Z,99692.56
2018-06-05T17:36:48.631Z,99695.09
2018-06-05T17:39:19.589Z,99702.46
2018-06-05T17:41:50.457Z,99705.19
2018-06-05T17:44:21.389Z,99713.59
2018-06-05T17:46:52.756Z,99720.38
2018-06-05T17:49:23.366Z,99724.00
2018-06-05T17:51:54.714Z,99720.11
2018-06-05T17:54:25.417Z,99726.66
2018-06-05T17:56:56.405Z,99725.06
2018-06-05T17:59:27.307Z,99728.33
2018-06-05T18:01:58.725Z,99732.13
2018-06-05T18:04:29.467Z,99737.52
2018-06-05T18:07:00.616Z,99741.34
2018-06-05T18:09:30.537Z,99736.42
2018-06-05T18:12:01.607Z,99748.07
2018-06-05T18:14:32.385Z,99744.27
2018-06-05T18:17:04.085Z,99744.77
2018-06-05T18:19:34.694Z,99755.34
2018-06-05T18:22:05.481Z,99751.79
2018-06-05T18:24:36.373Z,99754.23
2018-06-05T18:27:07.760Z,99753.92
2018-06-05T18:29:38.281Z,99750.90
2018-06-05T18:32:09.054Z,99759.30
2018-06-05T18:34:39.530Z,99758.16
2018-06-05T18:37:10.392Z,99768.98
2018-06-05T18:39:41.524Z,99764.04
2018-06-05T18:42:12.382Z,99768.59
2018-06-05T18:44:44.087Z,99766.89
2018-06-05T18:47:14.680Z,99772.55
2018-06-05T18:49:45.372Z,99773.28
2018-06-05T18:52:15.407Z,99773.23
2018-06-05T18:54:46.345Z,99775.34
2018-06-05T18:57:17.700Z,99783.95
2018-06-05T18:59:48.465Z,99780.34
2018-06-05T19:02:18.329Z,99781.66
2018-06-05T19:04:49.678Z,99791.34
2018-06-05T19:07:20.366Z,99794.47
2018-06-05T19:09:51.666Z,99798.76
2018-06-05T19:12:22.507Z,99804.65
2018-06-05T19:14:53.359Z,99799.16
2018-06-05T19:17:23.693Z,99801.81
2018-06-05T19:19:54.457Z,99805.22
2018-06-05T19:22:25.494Z,99810.29
2018-06-05T19:24:56.427Z,99817.27
2018-06-05T19:27:27.533Z,99816.88
2018-06-05T19:29:57.430Z,99819.73
2018-06-05T19:32:29.433Z,99822.61
2018-06-05T19:34:59.417Z,99822.25
2018-06-05T19:37:29.366Z,99826.40
2018-06-05T19:40:00.721Z,99836.30
2018-06-05T19:42:31.549Z,99834.30
2018-06-05T19:45:02.462Z,99837.19
2018-06-05T19:47:33.457Z,99834.64
2018-06-05T19:50:04.920Z,99839.13
2018-06-05T19:52:35.479Z,99844.73
2018-06-05T19:55:06.477Z,99848.41
2018-06-05T19:57:37.363Z,99860.47
2018-06-05T20:00:08.752Z,99856.04
2018-06-05T20:03:42.207Z,99858.37
2018-06-05T20:06:12.132Z,99862.25
2018-06-05T20:08:42.107Z,99867.79
2018-06-05T20:11:11.905Z,99865.54
2018-06-05T20:13:41.942Z,99871.66
2018-06-05T20:16:11.895Z,99874.27
2018-06-05T20:18:42.040Z,99873.37
2018-06-05T20:21:12.041Z,99878.42
2018-06-05T20:23:42.110Z,99875.03
2018-06-05T20:26:12.471Z,99881.76
2018-06-05T20:28:42.536Z,99881.37
2018-06-05T20:31:12.553Z,99885.91
2018-06-05T20:33:42.866Z,99888.31
2018-06-05T20:36:13.056Z,99893.84
2018-06-05T20:38:43.586Z,99891.62
2018-06-05T20:41:13.523Z,99889.06
2018-06-05T20:43:43.858Z,99889.28
2018-06-05T20:46:14.033Z,99891.41
2018-06-05T20:48:44.284Z,99902.69
2018-06-05T20:51:15.135Z,99900.17
2018-06-05T20:53:45.486Z,99897.65
2018-06-05T20:56:37.475Z,99902.76
2018-06-05T20:59:07.398Z,99907.28
2018-06-05T21:01:39.517Z,99901.25
2018-06-05T21:04:09.450Z,99916.87
2018-06-05T21:06:39.389Z,99908.66
2018-06-05T21:09:09.262Z,99915.89
2018-06-05T21:11:39.134Z,99912.02
2018-06-05T21:14:08.960Z,99913.25
2018-06-05T21:16:38.882Z,99915.88
2018-06-05T21:19:09.015Z,99908.67
2018-06-05T21:21:38.981Z,99916.44
2018-06-05T21:24:09.051Z,99914.13
2018-06-05T21:26:39.010Z,99919.11
2018-06-05T21:29:09.040Z,99920.09
2018-06-05T21:31:38.967Z,99925.08
2018-06-05T21:34:09.078Z,99929.84
2018-06-05T21:36:38.969Z,99935.99
2018-06-05T21:39:10.677Z,99939.92
2018-06-05T21:41:40.773Z,99945.64
2018-06-05T21:44:11.014Z,99946.86
2018-06-05T21:46:47.601Z,99941.80
2018-06-05T21:49:17.486Z,99953.05
2018-06-05T21:51:47.388Z,99954.18
2018-06-05T21:54:17.229Z,99958.67
2018-06-05T21:56:47.054Z,99962.66
2018-06-05T21:59:16.849Z,99959.29
2018-06-05T22:01:47.047Z,99960.14
2018-06-05T22:04:17.011Z,99972.64
2018-06-05T22:06:46.952Z,99971.52
2018-06-05T22:09:16.921Z,99980.95
2018-06-05T22:11:47.143Z,99979.40
2018-06-05T22:14:16.965Z,99990.62
2018-06-05T22:16:46.985Z,99998.87
2018-06-05T22:19:16.983Z,100006.05
2018-06-05T22:21:46.943Z,100003.05
2018-06-05T22:24:16.985Z,100014.07
2018-06-05T22:26:47.340Z,100016.81
2018-06-05T22:29:17.217Z,100025.89
2018-06-05T22:31:47.053Z,100022.70
2018-06-05T22:34:16.921Z,100025.63
2018-06-05T22:36:46.969Z,100032.01
2018-06-05T22:39:16.929Z,100042.36
2018-06-05T22:41:47.321Z,100042.53
2018-06-05T22:44:17.545Z,100051.95
2018-06-05T22:46:47.378Z,100057.66
2018-06-05T22:49:17.253Z,100061.61
2018-06-05T22:51:47.068Z,100068.04
2018-06-05T22:54:16.861Z,100069.08
2018-06-05T22:56:46.938Z,100071.42
2018-06-05T22:59:16.888Z,100077.11
2018-06-05T23:01:47.005Z,100081.05
2018-06-05T23:04:16.769Z,100085.19
2018-06-05T23:06:46.993Z,100095.63
2018-06-05T23:09:16.942Z,100095.84
2018-06-05T23:11:46.957Z,100102.25
2018-06-05T23:14:16.851Z,100105.98
2018-06-05T23:16:46.953Z,100108.96
2018-06-05T23:19:16.753Z,100109.89
2018-06-05T23:21:46.990Z,100108.66
2018-06-05T23:24:17.237Z,100117.61
2018-06-05T23:26:47.268Z,100116.59
2018-06-05T23:29:17.144Z,100114.43
2018-06-05T23:31:47.405Z,100117.56
2018-06-05T23:34:17.306Z,100127.95
2018-06-05T23:36:47.291Z,100124.52
2018-06-05T23:39:17.153Z,100121.94
2018-06-05T23:41:47.078Z,100135.25
2018-06-05T23:44:17.327Z,100147.80
2018-06-05T23:47:00.258Z,100148.83
2018-06-05T23:49:30.175Z,100145.18
2018-06-05T23:52:00.038Z,100154.34
2018-06-05T23:54:29.921Z,100152.37
2018-06-05T23:57:00.373Z,100164.48
2018-06-05T23:59:30.222Z,100175.84
